createdAt,value
2017-12-28T00:00:16.829Z,13.7
2017-12-28T00:01:18.965Z,14.5
2017-12-28T00:02:21.061Z,14.0
2017-12-28T00:03:22.981Z,16.4
2017-12-28T00:27:05.780Z,3.9
2017-12-28T00:28:07.566Z,4.4
2017-12-28T00:29:09.548Z,4.5
2017-12-28T00:30:11.374Z,3.9
2017-12-28T00:31:13.672Z,4.0
2017-12-28T00:32:17.088Z,3.8
2017-12-28T00:33:22.295Z,3.5
2017-12-28T00:34:24.581Z,4.2
2017-12-28T00:35:27.412Z,3.7
2017-12-28T00:36:29.331Z,3.8
2017-12-28T00:37:32.038Z,4.0
2017-12-28T00:38:34.043Z,4.0
2017-12-28T00:39:36.408Z,3.8
2017-12-28T00:40:38.305Z,4.3
2017-12-28T00:41:41.649Z,4.6
2017-12-28T00:42:45.166Z,4.8
2017-12-28T00:43:48.139Z,5.9
2017-12-28T00:44:50.053Z,6.6
2017-12-28T00:45:53.660Z,7.1
2017-12-28T00:46:56.592Z,7.2
2017-12-28T00:47:58.444Z,7.3
2017-12-28T00:49:02.323Z,7.8
2017-12-28T00:50:05.552Z,6.9
2017-12-28T00:51:07.985Z,7.6
2017-12-28T00:52:10.053Z,7.8
2017-12-28T00:53:12.813Z,8.9
2017-12-28T00:54:14.650Z,9.1
2017-12-28T00:55:17.670Z,8.9
2017-12-28T00:56:19.630Z,9.3
2017-12-28T00:57:22.275Z,9.5
2017-12-28T00:58:25.941Z,10.0
2017-12-28T00:59:28.071Z,11.3
2017-12-28T01:00:31.041Z,11.8
2017-12-28T01:01:33.985Z,11.9
2017-12-28T01:02:35.975Z,12.9
2017-12-28T01:03:39.315Z,12.1
2017-12-28T01:04:42.295Z,12.8
2017-12-28T01:05:45.675Z,14.6
2017-12-28T01:06:48.339Z,13.1
2017-12-28T01:07:50.741Z,14.2
2017-12-28T01:08:52.658Z,13.9
2017-12-28T01:09:54.435Z,14.3
2017-12-28T01:10:56.302Z,14.0
2017-12-28T01:11:58.169Z,13.6
2017-12-28T01:13:02.219Z,14.1
2017-12-28T01:14:06.116Z,14.3
2017-12-28T01:15:09.794Z,13.8
2017-12-28T01:16:12.493Z,14.7
2017-12-28T01:17:15.269Z,13.1
2017-12-28T01:18:18.409Z,12.0
2017-12-28T01:19:21.560Z,13.1
2017-12-28T01:20:25.679Z,13.1
2017-12-28T01:21:27.509Z,14.1
2017-12-28T01:22:30.280Z,12.8
2017-12-28T01:23:33.654Z,13.1
2017-12-28T01:25:26.488Z,13.8
2017-12-28T01:26:30.128Z,13.3
2017-12-28T01:36:17.342Z,9.3
2017-12-28T01:45:47.831Z,7.2
2017-12-28T01:49:28.564Z,6.8
2017-12-28T01:50:30.277Z,6.3
2017-12-28T01:53:47.122Z,6.3
2017-12-28T01:54:49.066Z,6.6
2017-12-28T01:55:51.457Z,6.3
2017-12-28T01:56:53.304Z,5.1
2017-12-28T01:57:55.185Z,5.4
2017-12-28T01:58:57.080Z,5.0
2017-12-28T01:59:58.995Z,5.8
2017-12-28T02:01:00.880Z,5.4
2017-12-28T02:02:02.809Z,4.6
2017-12-28T02:03:04.859Z,4.1
2017-12-28T02:04:06.728Z,4.4
2017-12-28T02:05:08.678Z,4.3
2017-12-28T02:06:10.524Z,4.3
2017-12-28T02:07:12.399Z,4.2
2017-12-28T02:08:14.335Z,3.9
2017-12-28T02:09:16.220Z,4.4
2017-12-28T02:10:18.111Z,4.6
2017-12-28T02:11:20.178Z,4.9
2017-12-28T02:12:22.071Z,4.4
2017-12-28T02:13:23.983Z,3.9
2017-12-28T02:14:25.802Z,3.7
2017-12-28T02:15:27.662Z,4.0
2017-12-28T02:16:29.521Z,4.1
2017-12-28T02:17:31.383Z,4.3
2017-12-28T02:18:33.370Z,4.1
2017-12-28T02:19:35.258Z,3.8
2017-12-28T02:20:37.251Z,4.0
2017-12-28T02:21:39.211Z,3.7
2017-12-28T02:22:41.717Z,3.7
2017-12-28T02:23:43.790Z,4.2
2017-12-28T02:24:45.727Z,3.9
2017-12-28T02:25:47.610Z,3.8
2017-12-28T02:26:49.591Z,4.1
2017-12-28T02:27:51.457Z,3.5
2017-12-28T02:28:53.374Z,4.0
2017-12-28T02:29:55.287Z,3.8
2017-12-28T02:30:57.276Z,3.3
2017-12-28T02:31:59.188Z,3.8
2017-12-28T02:33:01.201Z,3.7
2017-12-28T02:34:03.282Z,4.1
2017-12-28T02:35:06.093Z,3.7
2017-12-28T02:36:07.915Z,3.7
2017-12-28T02:37:09.831Z,3.9
2017-12-28T02:38:11.656Z,3.7
2017-12-28T02:39:13.658Z,3.8
2017-12-28T02:40:15.551Z,3.7
2017-12-28T02:41:17.502Z,5.1
2017-12-28T02:42:19.454Z,6.0
2017-12-28T02:43:21.402Z,5.6
2017-12-28T02:44:23.340Z,4.6
2017-12-28T02:45:25.236Z,4.4
2017-12-28T02:46:27.130Z,4.7
2017-12-28T02:47:29.063Z,4.9
2017-12-28T02:48:30.924Z,4.5
2017-12-28T02:49:32.803Z,5.4
2017-12-28T02:50:34.706Z,5.0
2017-12-28T02:51:36.694Z,5.1
2017-12-28T02:52:38.626Z,4.7
2017-12-28T02:53:40.500Z,5.0
2017-12-28T02:54:42.388Z,4.6
2017-12-28T03:01:07.539Z,3.8
2017-12-28T03:02:09.212Z,3.8
2017-12-28T03:03:10.900Z,10.4
2017-12-28T03:04:12.674Z,10.5
2017-12-28T03:05:14.551Z,6.7
2017-12-28T03:06:16.491Z,4.8
2017-12-28T03:07:18.386Z,4.5
2017-12-28T03:08:20.319Z,5.3
2017-12-28T03:09:22.258Z,4.5
2017-12-28T03:10:24.147Z,4.4
2017-12-28T03:11:26.133Z,4.6
2017-12-28T03:12:27.979Z,4.3
2017-12-28T03:13:29.855Z,4.0
2017-12-28T03:14:31.799Z,4.5
2017-12-28T03:15:33.700Z,4.5
2017-12-28T03:16:35.536Z,4.4
2017-12-28T03:17:37.427Z,4.2
2017-12-28T03:18:39.353Z,3.8
2017-12-28T03:19:41.251Z,4.1
2017-12-28T03:20:43.166Z,3.9
2017-12-28T03:21:45.010Z,4.1
2017-12-28T03:22:46.925Z,4.4
2017-12-28T03:23:48.852Z,4.4
2017-12-28T03:24:50.759Z,4.6
2017-12-28T03:25:52.644Z,4.1
2017-12-28T03:26:54.557Z,4.1
2017-12-28T03:27:56.489Z,3.8
2017-12-28T03:28:58.415Z,4.2
2017-12-28T03:30:00.382Z,4.3
2017-12-28T03:31:02.310Z,5.1
2017-12-28T03:32:04.173Z,4.7
2017-12-28T03:33:06.037Z,5.3
2017-12-28T03:34:07.895Z,5.1
2017-12-28T03:35:09.757Z,5.2
2017-12-28T03:36:11.574Z,5.1
2017-12-28T03:37:13.446Z,4.4
2017-12-28T03:38:15.323Z,4.5
2017-12-28T03:39:17.185Z,5.0
2017-12-28T03:40:19.074Z,5.4
2017-12-28T03:41:22.411Z,4.7
2017-12-28T03:42:24.361Z,5.7
2017-12-28T03:43:26.190Z,4.8
2017-12-28T03:44:28.014Z,5.2
2017-12-28T03:45:29.936Z,5.5
2017-12-28T03:46:31.844Z,5.3
2017-12-28T03:47:33.728Z,5.0
2017-12-28T03:48:35.628Z,5.2
2017-12-28T03:49:38.286Z,5.2
2017-12-28T03:50:40.144Z,5.2
2017-12-28T03:51:43.009Z,4.9
2017-12-28T03:52:44.949Z,5.2
2017-12-28T03:53:46.796Z,4.9
2017-12-28T03:54:48.649Z,5.2
2017-12-28T03:55:50.534Z,5.2
2017-12-28T03:56:52.408Z,5.0
2017-12-28T03:57:54.302Z,5.0
2017-12-28T03:58:56.218Z,4.9
2017-12-28T03:59:58.132Z,5.1
2017-12-28T04:01:00.970Z,5.3
2017-12-28T04:02:02.854Z,5.1
2017-12-28T04:03:04.732Z,4.2
2017-12-28T04:04:06.610Z,5.5
2017-12-28T04:05:09.394Z,4.6
2017-12-28T04:06:11.328Z,4.6
2017-12-28T04:07:13.193Z,4.7
2017-12-28T04:08:15.052Z,4.6
2017-12-28T04:09:16.819Z,4.5
2017-12-28T04:10:18.610Z,4.6
2017-12-28T04:11:20.371Z,5.7
2017-12-28T04:12:22.229Z,4.7
2017-12-28T04:13:24.007Z,4.4
2017-12-28T04:14:25.879Z,5.0
2017-12-28T04:15:27.723Z,5.5
2017-12-28T04:16:29.478Z,5.1
2017-12-28T04:17:31.357Z,5.5
2017-12-28T04:18:33.303Z,5.3
2017-12-28T04:19:35.270Z,5.6
2017-12-28T04:20:37.128Z,5.4
2017-12-28T04:21:38.941Z,4.9
2017-12-28T04:22:40.912Z,4.4
2017-12-28T04:23:42.846Z,5.5
2017-12-28T04:24:44.738Z,5.4
2017-12-28T04:25:46.595Z,5.4
2017-12-28T04:26:48.475Z,4.4
2017-12-28T04:27:50.369Z,5.1
2017-12-28T04:28:52.258Z,4.7
2017-12-28T04:29:54.137Z,4.8
2017-12-28T04:30:56.037Z,4.2
2017-12-28T04:31:57.923Z,4.8
2017-12-28T04:32:59.823Z,4.6
2017-12-28T04:34:01.740Z,3.9
2017-12-28T04:35:03.642Z,4.8
2017-12-28T04:36:05.757Z,4.4
2017-12-28T04:37:07.681Z,4.7
2017-12-28T04:38:09.579Z,5.0
2017-12-28T04:39:11.495Z,4.3
2017-12-28T04:40:13.357Z,4.8
2017-12-28T04:41:15.287Z,4.4
2017-12-28T04:42:17.174Z,4.5
2017-12-28T04:43:19.080Z,5.1
2017-12-28T04:44:20.940Z,4.0
2017-12-28T04:45:22.883Z,3.7
2017-12-28T04:46:24.780Z,4.0
2017-12-28T04:47:26.715Z,3.7
2017-12-28T04:48:28.603Z,4.1
2017-12-28T04:49:30.484Z,4.1
2017-12-28T04:50:32.405Z,4.1
2017-12-28T04:51:34.274Z,3.5
2017-12-28T04:52:36.184Z,4.1
2017-12-28T04:53:38.099Z,3.8
2017-12-28T04:54:40.040Z,3.6
2017-12-28T04:55:41.919Z,4.2
2017-12-28T04:56:43.935Z,4.1
2017-12-28T04:57:45.900Z,3.8
2017-12-28T04:58:47.781Z,4.1
2017-12-28T04:59:49.687Z,4.1
2017-12-28T05:00:51.629Z,4.7
2017-12-28T05:01:53.548Z,4.3
2017-12-28T05:02:55.474Z,4.2
2017-12-28T05:03:57.417Z,4.6
2017-12-28T05:04:59.346Z,4.0
2017-12-28T05:06:01.301Z,3.8
2017-12-28T05:07:03.255Z,4.4
2017-12-28T05:08:05.190Z,5.9
2017-12-28T05:09:07.017Z,4.7
2017-12-28T05:10:08.840Z,4.7
2017-12-28T05:11:10.580Z,5.7
2017-12-28T05:12:12.417Z,4.8
2017-12-28T05:13:14.235Z,4.7
2017-12-28T05:14:15.999Z,4.8
2017-12-28T05:15:17.784Z,5.2
2017-12-28T05:16:19.534Z,5.3
2017-12-28T05:17:21.336Z,4.1
2017-12-28T05:18:23.185Z,5.0
2017-12-28T05:19:24.960Z,4.8
2017-12-28T05:20:26.706Z,4.3
2017-12-28T05:21:28.393Z,4.4
2017-12-28T05:22:30.112Z,4.5
2017-12-28T05:23:31.908Z,4.8
2017-12-28T05:24:33.707Z,5.0
2017-12-28T05:25:35.813Z,4.4
2017-12-28T05:26:37.684Z,4.6
2017-12-28T05:27:39.596Z,5.0
2017-12-28T05:28:41.524Z,5.0
2017-12-28T05:29:43.435Z,5.1
2017-12-28T05:30:45.351Z,4.6
2017-12-28T05:31:47.245Z,5.3
2017-12-28T05:32:49.225Z,5.0
2017-12-28T05:33:51.146Z,6.1
2017-12-28T05:34:53.015Z,4.9
2017-12-28T05:35:54.955Z,5.5
2017-12-28T05:36:56.956Z,5.3
2017-12-28T05:37:58.903Z,5.0
2017-12-28T05:39:00.813Z,5.3
2017-12-28T05:40:02.624Z,5.1
2017-12-28T05:41:04.398Z,6.3
2017-12-28T05:42:06.193Z,5.5
2017-12-28T05:43:07.974Z,5.3
2017-12-28T05:44:09.746Z,5.5
2017-12-28T05:45:11.558Z,6.2
2017-12-28T05:46:13.354Z,6.3
2017-12-28T05:47:15.140Z,5.8
2017-12-28T05:48:16.899Z,6.5
2017-12-28T05:49:18.676Z,6.3
2017-12-28T05:50:20.526Z,6.2
2017-12-28T05:51:22.330Z,6.1
2017-12-28T05:52:24.123Z,6.2
2017-12-28T05:53:25.897Z,6.4
2017-12-28T05:54:27.694Z,6.0
2017-12-28T05:55:29.479Z,5.8
2017-12-28T05:56:31.335Z,6.4
2017-12-28T05:57:33.097Z,5.7
2017-12-28T05:58:34.913Z,6.1
2017-12-28T05:59:36.723Z,5.7
2017-12-28T06:00:38.518Z,5.6
2017-12-28T06:01:40.283Z,5.6
2017-12-28T06:02:42.128Z,5.6
2017-12-28T06:03:43.924Z,6.3
2017-12-28T06:04:45.760Z,5.8
2017-12-28T06:05:47.574Z,6.4
2017-12-28T06:06:49.322Z,6.0
2017-12-28T06:07:51.190Z,6.0
2017-12-28T06:08:52.963Z,5.7
2017-12-28T06:09:54.757Z,6.4
2017-12-28T06:10:56.521Z,6.2
2017-12-28T06:11:58.276Z,6.9
2017-12-28T06:13:00.141Z,6.9
2017-12-28T06:14:01.906Z,7.2
2017-12-28T06:15:03.712Z,8.2
2017-12-28T06:16:05.522Z,7.6
2017-12-28T06:17:07.274Z,8.2
2017-12-28T06:18:09.017Z,7.3
2017-12-28T06:19:10.781Z,8.5
2017-12-28T06:20:12.536Z,8.3
2017-12-28T06:21:14.308Z,8.3
2017-12-28T06:22:16.120Z,8.2
2017-12-28T06:23:17.863Z,8.0
2017-12-28T06:24:19.692Z,9.0
2017-12-28T06:25:21.496Z,7.7
2017-12-28T06:26:23.307Z,8.3
2017-12-28T06:27:25.105Z,8.7
2017-12-28T06:28:26.893Z,8.5
2017-12-28T06:29:28.715Z,7.5
2017-12-28T06:30:30.514Z,8.3
2017-12-28T06:31:32.280Z,8.4
2017-12-28T06:32:34.183Z,9.3
2017-12-28T06:33:36.055Z,9.8
2017-12-28T06:34:37.878Z,8.8
2017-12-28T06:35:39.820Z,8.0
2017-12-28T06:36:41.583Z,8.6
2017-12-28T06:37:43.378Z,8.1
2017-12-28T06:38:45.139Z,8.1
2017-12-28T06:39:47.081Z,9.0
2017-12-28T06:40:48.945Z,9.3
2017-12-28T06:41:50.911Z,8.7
2017-12-28T06:42:52.782Z,9.9
2017-12-28T06:43:54.687Z,9.9
2017-12-28T06:44:56.579Z,9.8
2017-12-28T06:45:58.421Z,9.1
2017-12-28T06:47:00.327Z,10.0
2017-12-28T06:48:02.224Z,9.7
2017-12-28T06:49:04.131Z,8.4
2017-12-28T06:50:06.034Z,7.8
2017-12-28T06:51:07.893Z,7.6
2017-12-28T06:52:09.805Z,7.1
2017-12-28T06:53:11.634Z,6.8
2017-12-28T06:54:13.556Z,6.2
2017-12-28T06:55:15.492Z,6.7
2017-12-28T07:01:57.660Z,5.5
2017-12-28T07:02:59.317Z,6.9
2017-12-28T07:04:00.954Z,7.8
2017-12-28T07:05:02.595Z,8.4
2017-12-28T07:06:04.251Z,8.5
2017-12-28T07:07:05.970Z,8.1
2017-12-28T07:08:07.629Z,8.0
2017-12-28T07:09:09.361Z,7.9
2017-12-28T07:10:11.007Z,8.5
2017-12-28T07:11:12.660Z,7.1
2017-12-28T07:12:14.327Z,7.6
2017-12-28T07:13:15.999Z,8.0
2017-12-28T07:14:17.686Z,7.3
2017-12-28T07:15:19.358Z,7.4
2017-12-28T07:16:21.045Z,7.8
2017-12-28T07:17:22.705Z,7.8
2017-12-28T07:18:24.588Z,7.7
2017-12-28T07:19:26.449Z,7.9
2017-12-28T07:20:28.280Z,8.7
2017-12-28T07:21:30.110Z,9.1
2017-12-28T07:22:31.950Z,8.6
2017-12-28T07:23:33.799Z,8.3
2017-12-28T07:24:35.664Z,9.0
2017-12-28T07:25:37.462Z,8.3
2017-12-28T07:26:42.892Z,7.9
2017-12-28T07:27:44.649Z,8.1
2017-12-28T07:28:46.464Z,7.3
2017-12-28T07:29:48.775Z,8.2
2017-12-28T07:30:50.497Z,7.8
2017-12-28T07:31:53.381Z,8.1
2017-12-28T07:32:55.570Z,7.7
2017-12-28T07:33:57.352Z,8.4
2017-12-28T07:34:59.297Z,8.5
2017-12-28T07:36:01.339Z,8.2
2017-12-28T07:37:03.192Z,12.2
2017-12-28T07:38:05.094Z,9.4
2017-12-28T07:39:07.002Z,9.2
2017-12-28T07:40:08.979Z,8.4
2017-12-28T07:41:10.755Z,9.4
2017-12-28T07:42:12.598Z,9.8
2017-12-28T07:43:14.338Z,14.9
2017-12-28T07:44:16.089Z,17.1
2017-12-28T07:45:17.849Z,13.1
2017-12-28T07:46:19.587Z,9.2
2017-12-28T07:47:21.320Z,9.7
2017-12-28T07:48:23.110Z,8.5
2017-12-28T07:49:24.779Z,8.4
2017-12-28T07:50:26.525Z,9.0
2017-12-28T07:51:28.274Z,8.2
2017-12-28T07:52:30.148Z,8.2
2017-12-28T07:53:31.926Z,7.9
2017-12-28T07:54:33.663Z,8.4
2017-12-28T07:55:35.369Z,8.5
2017-12-28T07:56:37.115Z,8.6
2017-12-28T07:57:38.871Z,10.1
2017-12-28T07:58:40.660Z,10.4
2017-12-28T07:59:42.416Z,10.0
2017-12-28T08:00:44.134Z,9.1
2017-12-28T08:01:45.917Z,7.9
2017-12-28T08:02:47.689Z,7.0
2017-12-28T08:03:49.419Z,7.1
2017-12-28T08:04:51.139Z,7.5
2017-12-28T08:05:52.830Z,7.0
2017-12-28T08:06:54.560Z,6.6
2017-12-28T08:07:56.226Z,6.1
2017-12-28T08:08:58.130Z,6.0
2017-12-28T08:09:59.807Z,6.3
2017-12-28T08:11:01.858Z,7.0
2017-12-28T08:12:07.509Z,6.4
2017-12-28T08:13:09.253Z,6.4
2017-12-28T08:14:11.013Z,6.4
2017-12-28T08:15:12.990Z,6.8
2017-12-28T08:16:14.736Z,6.8
2017-12-28T08:17:16.440Z,7.1
2017-12-28T08:18:18.204Z,7.3
2017-12-28T08:19:19.903Z,6.6
2017-12-28T08:20:21.786Z,6.8
2017-12-28T08:21:23.608Z,7.1
2017-12-28T08:22:25.394Z,7.3
2017-12-28T08:23:27.130Z,7.3
2017-12-28T08:24:28.864Z,7.2
2017-12-28T08:25:30.827Z,7.1
2017-12-28T08:26:32.544Z,6.7
2017-12-28T08:27:34.282Z,7.5
2017-12-28T08:28:36.041Z,8.1
2017-12-28T08:29:37.758Z,7.3
2017-12-28T08:30:39.440Z,7.4
2017-12-28T08:31:41.126Z,6.9
2017-12-28T08:32:43.774Z,7.9
2017-12-28T08:33:45.505Z,9.6
2017-12-28T08:34:47.256Z,7.3
2017-12-28T08:35:49.005Z,7.6
2017-12-28T08:36:50.772Z,7.2
2017-12-28T08:37:52.534Z,7.4
2017-12-28T08:38:54.416Z,6.9
2017-12-28T08:39:56.156Z,6.7
2017-12-28T08:40:59.396Z,7.0
2017-12-28T08:42:01.107Z,6.6
2017-12-28T08:43:02.880Z,7.3
2017-12-28T08:44:04.643Z,7.3
2017-12-28T08:45:06.360Z,6.3
2017-12-28T08:46:08.150Z,6.9
2017-12-28T08:47:09.880Z,6.2
2017-12-28T08:48:11.807Z,6.3
2017-12-28T08:49:13.554Z,6.3
2017-12-28T08:50:16.261Z,7.1
2017-12-28T08:51:17.601Z,6.5
2017-12-28T08:52:19.288Z,6.8
2017-12-28T08:53:20.963Z,6.8
2017-12-28T08:54:22.649Z,7.3
2017-12-28T08:55:24.372Z,7.4
2017-12-28T08:56:26.120Z,7.8
2017-12-28T08:57:27.897Z,7.4
2017-12-28T08:58:29.601Z,8.2
2017-12-28T08:59:31.332Z,6.4
2017-12-28T09:00:33.108Z,7.3
2017-12-28T09:01:34.836Z,7.1
2017-12-28T09:02:36.590Z,7.3
2017-12-28T09:03:38.324Z,8.0
2017-12-28T09:04:40.129Z,7.4
2017-12-28T09:05:42.770Z,8.0
2017-12-28T09:06:44.522Z,7.0
2017-12-28T09:07:46.241Z,6.7
2017-12-28T09:08:48.016Z,6.2
2017-12-28T09:09:49.851Z,6.5
2017-12-28T09:10:51.692Z,6.7
2017-12-28T09:11:53.761Z,6.4
2017-12-28T09:12:55.495Z,6.7
2017-12-28T09:13:57.299Z,6.2
2017-12-28T09:14:59.076Z,6.7
2017-12-28T09:16:00.889Z,6.7
2017-12-28T09:17:02.613Z,7.0
2017-12-28T09:18:04.385Z,6.9
2017-12-28T09:19:07.105Z,5.8
2017-12-28T09:20:09.061Z,5.7
2017-12-28T09:21:10.768Z,6.4
2017-12-28T09:22:12.488Z,6.4
2017-12-28T09:23:14.258Z,6.0
2017-12-28T09:24:16.044Z,6.6
2017-12-28T09:25:17.852Z,5.8
2017-12-28T09:26:19.613Z,5.8
2017-12-28T09:27:21.305Z,5.6
2017-12-28T09:28:23.125Z,6.4
2017-12-28T09:29:24.901Z,6.9
2017-12-28T09:30:27.502Z,6.2
2017-12-28T09:31:29.721Z,6.9
2017-12-28T09:32:31.537Z,7.3
2017-12-28T09:33:33.318Z,6.8
2017-12-28T09:34:35.201Z,6.6
2017-12-28T09:35:36.942Z,7.1
2017-12-28T09:36:38.669Z,6.4
2017-12-28T09:37:40.449Z,6.4
2017-12-28T09:38:42.198Z,6.5
2017-12-28T09:39:43.924Z,6.1
2017-12-28T09:40:45.736Z,6.5
2017-12-28T09:41:47.477Z,5.5
2017-12-28T09:42:49.301Z,5.9
2017-12-28T09:43:51.825Z,6.8
2017-12-28T09:44:53.601Z,7.3
2017-12-28T09:45:55.380Z,6.5
2017-12-28T09:46:57.095Z,5.1
2017-12-28T09:47:58.836Z,5.1
2017-12-28T09:49:00.614Z,6.7
2017-12-28T09:50:02.332Z,7.0
2017-12-28T09:51:04.115Z,5.7
2017-12-28T09:52:05.816Z,5.1
2017-12-28T09:53:07.577Z,6.4
2017-12-28T09:54:09.303Z,5.6
2017-12-28T09:55:11.084Z,7.1
2017-12-28T09:56:12.824Z,5.7
2017-12-28T09:57:14.532Z,5.5
2017-12-28T09:58:17.717Z,5.2
2017-12-28T09:59:19.555Z,5.2
2017-12-28T10:00:21.282Z,6.4
2017-12-28T10:01:23.055Z,5.5
2017-12-28T10:02:24.878Z,5.2
2017-12-28T10:03:26.598Z,5.5
2017-12-28T10:04:28.403Z,4.5
2017-12-28T10:05:30.179Z,5.6
2017-12-28T10:06:31.918Z,5.2
2017-12-28T10:07:33.751Z,5.2
2017-12-28T10:08:35.457Z,6.4
2017-12-28T10:09:37.245Z,5.6
2017-12-28T10:10:39.034Z,5.9
2017-12-28T10:11:41.074Z,5.3
2017-12-28T10:12:44.791Z,5.9
2017-12-28T10:13:46.696Z,5.7
2017-12-28T10:14:50.231Z,5.7
2017-12-28T10:15:52.220Z,5.4
2017-12-28T10:16:54.253Z,5.9
2017-12-28T10:17:57.613Z,5.9
2017-12-28T10:19:01.126Z,6.2
2017-12-28T10:20:02.956Z,5.9
2017-12-28T10:21:04.731Z,6.2
2017-12-28T10:22:07.048Z,6.0
2017-12-28T10:23:08.953Z,5.2
2017-12-28T10:24:11.672Z,5.9
2017-12-28T10:25:13.441Z,6.1
2017-12-28T10:26:15.365Z,5.9
2017-12-28T10:27:17.852Z,5.9
2017-12-28T10:28:20.569Z,5.7
2017-12-28T10:29:22.329Z,6.1
2017-12-28T10:30:26.270Z,6.7
2017-12-28T10:31:28.698Z,6.2
2017-12-28T10:32:30.477Z,6.5
2017-12-28T10:33:32.290Z,6.1
2017-12-28T10:34:33.972Z,5.7
2017-12-28T10:35:35.697Z,6.1
2017-12-28T10:36:38.277Z,5.9
2017-12-28T10:37:40.106Z,7.1
2017-12-28T10:38:42.066Z,6.2
2017-12-28T10:39:44.421Z,7.6
2017-12-28T10:40:46.080Z,8.0
2017-12-28T10:41:47.922Z,7.5
2017-12-28T10:42:49.766Z,7.9
2017-12-28T10:43:51.663Z,7.5
2017-12-28T10:44:54.342Z,7.7
2017-12-28T10:45:56.274Z,8.3
2017-12-28T10:47:01.092Z,9.2
2017-12-28T10:48:02.943Z,8.1
2017-12-28T10:49:04.742Z,9.0
2017-12-28T10:50:06.611Z,10.2
2017-12-28T10:51:08.579Z,8.5
2017-12-28T10:52:10.415Z,9.6
2017-12-28T10:53:13.459Z,8.3
2017-12-28T10:54:16.103Z,8.5
2017-12-28T10:55:17.916Z,7.6
2017-12-28T11:01:55.121Z,5.8
2017-12-28T15:01:09.615Z,4.4
2017-12-28T15:02:11.671Z,4.2
2017-12-28T15:03:13.961Z,5.4
2017-12-28T15:04:16.188Z,6.9
2017-12-28T15:05:18.401Z,5.5
2017-12-28T15:06:20.629Z,6.4
2017-12-28T15:07:22.796Z,5.2
2017-12-28T15:08:25.209Z,6.3
2017-12-28T15:09:27.389Z,5.8
2017-12-28T15:10:29.587Z,6.3
2017-12-28T15:11:31.704Z,7.0
2017-12-28T15:12:33.991Z,5.4
2017-12-28T15:13:36.008Z,6.1
2017-12-28T15:14:38.191Z,5.6
2017-12-28T15:15:40.203Z,5.0
2017-12-28T15:16:42.483Z,6.4
2017-12-28T15:17:44.319Z,6.7
2017-12-28T15:18:46.366Z,7.2
2017-12-28T15:20:58.002Z,5.9
2017-12-28T15:22:00.146Z,6.3
2017-12-28T15:23:02.454Z,7.3
2017-12-28T15:24:04.538Z,6.3
2017-12-28T15:25:06.604Z,6.4
2017-12-28T15:26:08.463Z,6.8
2017-12-28T15:27:10.612Z,9.3
2017-12-28T15:28:12.964Z,8.0
2017-12-28T15:29:15.270Z,7.0
2017-12-28T15:30:17.731Z,6.7
2017-12-28T15:31:20.082Z,6.8
2017-12-28T15:32:22.615Z,7.4
2017-12-28T15:33:25.215Z,8.6
2017-12-28T15:34:27.678Z,9.2
2017-12-28T15:35:29.792Z,13.7
2017-12-28T15:36:32.033Z,8.0
2017-12-28T15:37:34.421Z,7.8
2017-12-28T15:38:36.710Z,7.3
2017-12-28T15:39:39.031Z,6.1
2017-12-28T15:40:41.391Z,5.0
2017-12-28T15:41:43.761Z,6.1
2017-12-28T15:42:46.052Z,6.0
2017-12-28T15:43:48.277Z,6.9
2017-12-28T15:44:50.549Z,7.9
2017-12-28T15:45:52.999Z,7.6
2017-12-28T15:46:55.495Z,7.3
2017-12-28T15:47:57.837Z,6.9
2017-12-28T15:49:00.317Z,6.5
2017-12-28T15:50:02.704Z,6.7
2017-12-28T15:51:04.831Z,5.9
2017-12-28T15:52:07.250Z,6.5
2017-12-28T15:53:09.513Z,6.4
2017-12-28T15:54:11.922Z,5.4
2017-12-28T15:55:14.342Z,6.6
2017-12-28T15:56:16.703Z,8.0
2017-12-28T15:57:19.111Z,18.5
2017-12-28T15:58:21.404Z,22.4
2017-12-28T15:59:23.622Z,12.8
2017-12-28T16:00:26.118Z,11.9
2017-12-28T16:01:28.500Z,10.9
2017-12-28T16:02:31.141Z,8.7
2017-12-28T16:03:33.493Z,8.5
2017-12-28T16:04:35.920Z,9.4
2017-12-28T16:05:38.387Z,10.2
2017-12-28T16:06:40.755Z,9.0
2017-12-28T16:07:43.450Z,9.9
2017-12-28T16:08:46.097Z,10.6
2017-12-28T16:09:48.728Z,11.0
2017-12-28T16:10:51.133Z,10.0
2017-12-28T16:11:53.271Z,8.3
2017-12-28T16:12:55.475Z,7.6
2017-12-28T16:13:57.763Z,7.8
2017-12-28T16:15:00.112Z,7.3
2017-12-28T16:16:02.382Z,8.8
2017-12-28T16:17:04.530Z,11.9
2017-12-28T16:18:06.840Z,10.8
2017-12-28T16:19:09.143Z,10.3
2017-12-28T16:20:11.508Z,8.9
2017-12-28T16:21:13.741Z,8.4
2017-12-28T16:22:16.021Z,8.6
2017-12-28T16:23:18.150Z,9.6
2017-12-28T16:24:20.338Z,8.2
2017-12-28T16:25:22.694Z,7.0
2017-12-28T16:26:25.069Z,7.2
2017-12-28T16:27:27.396Z,7.5
2017-12-28T16:28:29.549Z,8.0
2017-12-28T16:29:31.749Z,8.9
2017-12-28T16:30:33.882Z,9.1
2017-12-28T16:31:36.082Z,8.3
2017-12-28T16:32:38.355Z,8.2
2017-12-28T16:33:40.688Z,8.6
2017-12-28T16:34:43.152Z,9.8
2017-12-28T16:35:45.415Z,11.4
2017-12-28T16:36:47.557Z,16.5
2017-12-28T16:37:49.586Z,10.4
2017-12-28T16:38:51.580Z,10.5
2017-12-28T16:39:53.777Z,10.0
2017-12-28T16:40:56.073Z,8.7
2017-12-28T16:41:58.259Z,9.0
2017-12-28T16:43:00.496Z,8.9
2017-12-28T16:44:02.569Z,8.7
2017-12-28T16:45:05.664Z,8.6
2017-12-28T16:46:07.852Z,8.2
2017-12-28T16:47:10.015Z,7.6
2017-12-28T16:48:12.034Z,7.8
2017-12-28T16:49:14.099Z,9.1
2017-12-28T16:50:16.633Z,8.3
2017-12-28T16:51:19.207Z,8.9
2017-12-28T16:52:21.440Z,9.8
2017-12-28T16:53:23.639Z,9.4
2017-12-28T16:54:25.869Z,8.6
2017-12-28T16:55:27.965Z,8.0
2017-12-28T16:56:30.096Z,10.4
2017-12-28T16:57:32.296Z,9.6
2017-12-28T16:58:34.521Z,8.8
2017-12-28T16:59:36.745Z,9.1
2017-12-28T17:00:39.532Z,9.0
2017-12-28T17:01:41.931Z,9.0
2017-12-28T17:02:43.751Z,8.6
2017-12-28T17:03:45.535Z,8.6
2017-12-28T17:04:51.212Z,8.6
2017-12-28T17:05:52.987Z,8.3
2017-12-28T17:06:54.848Z,9.0
2017-12-28T17:07:56.575Z,8.9
2017-12-28T17:08:59.099Z,8.8
2017-12-28T17:10:00.910Z,8.9
2017-12-28T17:11:02.637Z,8.8
2017-12-28T17:12:06.319Z,8.6
2017-12-28T17:13:08.096Z,8.8
2017-12-28T17:14:10.743Z,8.9
2017-12-28T17:15:12.623Z,8.2
2017-12-28T17:16:14.330Z,8.5
2017-12-28T17:17:16.077Z,9.1
2017-12-28T17:18:17.932Z,10.7
2017-12-28T17:19:19.667Z,11.7
2017-12-28T17:20:21.487Z,11.3
2017-12-28T17:21:23.269Z,9.2
2017-12-28T17:22:25.033Z,8.9
2017-12-28T17:23:26.799Z,8.8
2017-12-28T17:24:28.541Z,8.4
2017-12-28T17:25:30.341Z,9.9
2017-12-28T17:26:32.129Z,8.6
2017-12-28T17:27:33.955Z,9.9
2017-12-28T17:28:35.721Z,9.5
2017-12-28T17:29:37.459Z,9.7
2017-12-28T17:30:39.262Z,9.5
2017-12-28T17:31:41.052Z,9.8
2017-12-28T17:32:43.419Z,9.2
2017-12-28T17:33:45.249Z,9.9
2017-12-28T17:34:47.030Z,9.1
2017-12-28T17:35:48.762Z,8.9
2017-12-28T17:36:50.452Z,9.3
2017-12-28T17:37:52.222Z,9.0
2017-12-28T17:38:54.502Z,9.1
2017-12-28T17:39:56.231Z,8.8
2017-12-28T17:40:57.970Z,10.0
2017-12-28T17:41:59.753Z,10.4
2017-12-28T17:43:01.506Z,9.3
2017-12-28T17:44:03.409Z,9.1
2017-12-28T17:45:05.147Z,9.1
2017-12-28T17:46:11.671Z,10.2
2017-12-28T17:47:13.408Z,10.3
2017-12-28T17:48:15.218Z,9.8
2017-12-28T17:49:16.935Z,10.3
2017-12-28T17:50:18.700Z,12.6
2017-12-28T17:51:20.460Z,9.4
2017-12-28T17:52:22.237Z,10.7
2017-12-28T17:53:24.009Z,10.4
2017-12-28T17:54:25.797Z,12.1
2017-12-28T17:55:27.520Z,10.9
2017-12-28T17:56:29.276Z,10.3
2017-12-28T17:57:31.047Z,10.9
2017-12-28T17:58:32.823Z,10.1
2017-12-28T17:59:34.508Z,11.2
2017-12-28T18:00:36.202Z,10.5
2017-12-28T18:01:37.941Z,10.7
2017-12-28T18:02:39.711Z,11.0
2017-12-28T18:03:41.451Z,9.8
2017-12-28T18:04:43.250Z,10.1
2017-12-28T18:05:45.028Z,11.2
2017-12-28T18:06:46.863Z,10.9
2017-12-28T18:07:48.545Z,11.1
2017-12-28T18:08:50.240Z,11.7
2017-12-28T18:09:51.916Z,11.9
2017-12-28T18:10:53.575Z,12.7
2017-12-28T18:11:55.254Z,11.0
2017-12-28T18:12:56.936Z,11.0
2017-12-28T18:13:58.697Z,12.4
2017-12-28T18:15:00.385Z,13.6
2017-12-28T18:16:02.083Z,13.1
2017-12-28T18:17:03.799Z,13.2
2017-12-28T18:18:05.617Z,11.9
2017-12-28T18:19:07.378Z,12.0
2017-12-28T18:20:09.160Z,12.0
2017-12-28T18:21:10.943Z,11.2
2017-12-28T18:22:12.744Z,11.5
2017-12-28T18:23:15.912Z,11.2
2017-12-28T18:24:17.644Z,11.8
2017-12-28T18:25:20.922Z,12.3
2017-12-28T18:26:23.094Z,11.3
2017-12-28T18:27:24.927Z,11.5
2017-12-28T18:28:26.706Z,12.3
2017-12-28T18:29:28.457Z,14.5
2017-12-28T18:30:31.137Z,13.5
2017-12-28T18:31:32.870Z,13.2
2017-12-28T18:32:34.654Z,14.5
2017-12-28T18:33:37.312Z,13.4
2017-12-28T18:34:39.069Z,12.7
2017-12-28T18:35:41.338Z,12.2
2017-12-28T18:36:43.185Z,13.0
2017-12-28T18:37:44.952Z,11.9
2017-12-28T18:38:46.737Z,12.7
2017-12-28T18:39:48.499Z,12.3
2017-12-28T18:40:50.308Z,11.2
2017-12-28T18:41:52.927Z,11.8
2017-12-28T18:42:54.727Z,11.8
2017-12-28T18:43:56.467Z,12.0
2017-12-28T18:44:58.262Z,12.1
2017-12-28T18:46:00.022Z,12.0
2017-12-28T18:47:01.795Z,11.7
2017-12-28T18:48:03.472Z,11.5
2017-12-28T18:49:05.203Z,10.9
2017-12-28T18:50:06.948Z,11.9
2017-12-28T18:51:08.684Z,11.5
2017-12-28T18:52:10.432Z,12.0
2017-12-28T18:53:12.171Z,10.6
2017-12-28T18:54:13.958Z,11.7
2017-12-28T18:55:15.680Z,11.5
2017-12-28T19:01:59.189Z,7.8
2017-12-28T19:03:00.851Z,7.9
2017-12-28T19:04:02.523Z,9.7
2017-12-28T19:05:04.168Z,11.3
2017-12-28T19:06:05.807Z,11.5
2017-12-28T19:07:07.457Z,10.1
2017-12-28T19:08:09.111Z,10.5
2017-12-28T19:09:10.775Z,11.4
2017-12-28T19:10:12.422Z,10.4
2017-12-28T19:11:14.093Z,12.4
2017-12-28T19:12:15.748Z,11.1
2017-12-28T19:13:17.395Z,11.5
2017-12-28T19:14:19.046Z,11.1
2017-12-28T19:15:20.690Z,12.0
2017-12-28T19:16:22.356Z,11.3